Time;durP1;ratioP1;P1;durP2;ratioP2;P2;SDS_P1;SDS_P2;PMS_P1;PMS_P2;Temp;Humidity;BMP_temperature;BMP_pressure;BME280_temperature;BME280_humidity;BME280_pressure;Samples;Min_cycle;Max_cycle;Signal;HPM_P1;HPM_P2
2022/03/08 00:00:21;;;;;;;10.45;4.95;;;1.20;99.90;;;;;;5013120;28;20120;-60
2022/03/08 00:02:47;;;;;;;11.00;5.10;;;1.20;99.90;;;;;;4995431;28;20049;-61
2022/03/08 00:05:13;;;;;;;12.02;5.28;;;1.10;99.90;;;;;;5018023;28;20093;-60
2022/03/08 00:07:39;;;;;;;8.80;5.10;;;1.10;99.90;;;;;;5012868;28;20092;-60
2022/03/08 00:10:08;;;;;;;9.93;4.90;;;1.10;99.90;;;;;;5013177;28;20100;-60
2022/03/08 00:12:34;;;;;;;9.77;5.00;;;1.10;99.90;;;;;;5013078;28;20046;-60
2022/03/08 00:15:00;;;;;;;9.43;5.47;;;1.10;99.90;;;;;;5012859;28;20048;-60
2022/03/08 00:17:25;;;;;;;9.73;5.28;;;1.00;99.90;;;;;;5011634;28;20050;-60
2022/03/08 00:19:51;;;;;;;9.60;5.55;;;1.00;99.90;;;;;;5012936;28;20038;-59
2022/03/08 00:22:17;;;;;;;11.45;6.07;;;1.10;99.90;;;;;;5012669;28;20642;-59
2022/03/08 00:24:43;;;;;;;9.60;5.90;;;1.00;99.90;;;;;;5012880;28;20121;-59
2022/03/08 00:27:09;;;;;;;9.65;5.80;;;1.00;99.90;;;;;;5012514;28;20500;-58
2022/03/08 00:29:34;;;;;;;10.13;5.60;;;1.00;99.90;;;;;;5012788;28;20038;-59
2022/03/08 00:32:00;;;;;;;9.02;5.13;;;1.00;99.90;;;;;;5012651;28;20038;-59
2022/03/08 00:34:26;;;;;;;9.23;4.93;;;1.00;99.90;;;;;;5012537;28;20046;-59
2022/03/08 00:36:51;;;;;;;8.60;4.75;;;1.00;99.90;;;;;;5012821;28;20041;-59
2022/03/08 00:39:18;;;;;;;12.15;6.07;;;1.00;99.90;;;;;;5012465;28;20077;-58
2022/03/08 00:41:45;;;;;;;12.77;6.40;;;1.00;99.90;;;;;;4994889;28;20046;-59
2022/03/08 00:44:11;;;;;;;11.55;6.43;;;0.90;99.90;;;;;;5011513;28;20046;-59
2022/03/08 00:46:37;;;;;;;12.05;6.30;;;0.90;99.90;;;;;;5012505;28;20042;-59
2022/03/08 00:49:03;;;;;;;12.25;5.90;;;0.90;99.90;;;;;;4994860;28;20104;-59
2022/03/08 00:51:29;;;;;;;9.55;5.50;;;0.90;99.90;;;;;;5012286;28;20506;-58
2022/03/08 00:53:55;;;;;;;10.90;5.53;;;0.90;99.90;;;;;;5012689;28;20069;-58
2022/03/08 00:56:21;;;;;;;10.30;5.97;;;0.80;99.90;;;;;;5012430;28;20562;-59
2022/03/08 00:58:46;;;;;;;10.02;5.75;;;0.80;99.90;;;;;;5012246;28;20045;-59
2022/03/08 01:01:12;;;;;;;9.48;5.55;;;0.80;99.90;;;;;;5012498;28;20038;-58
2022/03/08 01:03:38;;;;;;;10.65;6.45;;;0.80;99.90;;;;;;5014790;28;20068;-58
2022/03/08 01:06:04;;;;;;;10.45;5.75;;;0.70;99.90;;;;;;5014575;28;20042;-59
2022/03/08 01:08:29;;;;;;;11.13;6.05;;;0.70;99.90;;;;;;5012422;28;20041;-58
2022/03/08 01:10:55;;;;;;;9.82;5.68;;;0.70;99.90;;;;;;5012375;28;20501;-59
2022/03/08 01:13:21;;;;;;;10.52;5.78;;;0.60;99.90;;;;;;5012302;28;20121;-59
2022/03/08 01:15:47;;;;;;;9.90;5.35;;;0.60;99.90;;;;;;5012238;28;20050;-59
2022/03/08 01:18:12;;;;;;;9.48;5.65;;;0.60;99.90;;;;;;5012275;28;20050;-59
2022/03/08 01:20:38;;;;;;;11.52;5.30;;;0.60;99.90;;;;;;5011826;28;20474;-59
2022/03/08 01:23:04;;;;;;;11.63;6.20;;;0.60;99.90;;;;;;5011993;28;20521;-60
2022/03/08 01:25:30;;;;;;;10.32;5.85;;;0.70;99.90;;;;;;5012190;28;20034;-59
2022/03/08 01:27:56;;;;;;;11.50;5.57;;;0.60;99.90;;;;;;5012016;28;20396;-60
2022/03/08 01:30:24;;;;;;;9.15;5.50;;;0.60;99.90;;;;;;5011965;28;20096;-60
2022/03/08 01:32:50;;;;;;;9.77;5.05;;;0.60;99.90;;;;;;4994307;28;20048;-60
2022/03/08 01:35:16;;;;;;;9.50;5.53;;;0.60;99.90;;;;;;5012239;28;20454;-60
2022/03/08 01:37:43;;;;;;;10.18;5.13;;;0.60;99.90;;;;;;5012145;28;20053;-59
2022/03/08 01:40:14;;;;;;;10.68;5.47;;;0.50;99.90;;;;;;5012077;28;20450;-60
2022/03/08 01:42:42;;;;;;;11.23;5.47;;;0.60;99.90;;;;;;5012345;28;20104;-60
2022/03/08 01:45:08;;;;;;;10.35;5.35;;;0.50;99.90;;;;;;5011754;28;20494;-60
2022/03/08 01:47:34;;;;;;;10.25;5.30;;;0.50;99.90;;;;;;5011809;28;20038;-60
2022/03/08 01:50:00;;;;;;;11.00;5.70;;;0.50;99.90;;;;;;5011877;28;20069;-60
2022/03/08 01:52:27;;;;;;;9.85;5.82;;;0.50;99.90;;;;;;5012094;28;20050;-60
2022/03/08 01:54:53;;;;;;;12.13;6.15;;;0.50;99.90;;;;;;5013348;28;20073;-60
2022/03/08 01:57:19;;;;;;;12.32;5.95;;;0.40;99.90;;;;;;4997571;28;20076;-60
2022/03/08 01:59:46;;;;;;;11.82;5.75;;;0.50;99.90;;;;;;5015626;28;20137;-60
2022/03/08 02:02:12;;;;;;;10.30;5.75;;;0.40;99.90;;;;;;5015238;28;20524;-60
2022/03/08 02:04:38;;;;;;;11.27;6.07;;;0.50;99.90;;;;;;5020117;28;20046;-60
2022/03/08 02:07:04;;;;;;;10.30;6.07;;;0.50;99.90;;;;;;5015584;28;20053;-60
2022/03/08 02:09:30;;;;;;;10.75;5.78;;;0.50;99.90;;;;;;5019866;28;20398;-60
2022/03/08 02:11:56;;;;;;;12.30;6.15;;;0.40;99.90;;;;;;4999482;28;20038;-60
2022/03/08 02:14:22;;;;;;;11.48;6.03;;;0.40;99.90;;;;;;5015397;28;20046;-61
2022/03/08 02:16:47;;;;;;;9.63;5.70;;;0.40;99.90;;;;;;5015087;28;20109;-60
2022/03/08 02:19:14;;;;;;;13.52;6.82;;;0.40;99.90;;;;;;5015002;28;20410;-60
2022/03/08 02:21:42;;;;;;;14.93;7.68;;;0.40;99.90;;;;;;5014875;28;20062;-58
2022/03/08 02:24:07;;;;;;;11.93;7.10;;;0.40;99.90;;;;;;5015034;28;20054;-60
2022/03/08 02:26:33;;;;;;;13.43;7.55;;;0.40;99.90;;;;;;5014883;28;20399;-60
2022/03/08 02:29:00;;;;;;;12.75;7.28;;;0.40;99.90;;;;;;5014785;28;20042;-60
2022/03/08 02:31:26;;;;;;;14.23;7.68;;;0.30;99.90;;;;;;5014801;28;20038;-60
2022/03/08 02:33:52;;;;;;;14.20;7.18;;;0.30;99.90;;;;;;4997477;28;20438;-60
2022/03/08 02:36:17;;;;;;;13.25;7.05;;;0.40;99.90;;;;;;5014888;28;20046;-60
2022/03/08 02:38:43;;;;;;;11.70;6.65;;;0.30;99.90;;;;;;5014503;28;20477;-59
2022/03/08 02:41:09;;;;;;;11.93;6.90;;;0.30;99.90;;;;;;5014741;28;20041;-60
2022/03/08 02:43:35;;;;;;;12.13;7.25;;;0.30;99.90;;;;;;5014708;28;20033;-60
2022/03/08 02:46:00;;;;;;;13.20;7.03;;;0.30;99.90;;;;;;5014743;28;20394;-62
2022/03/08 02:48:28;;;;;;;11.77;7.10;;;0.30;99.90;;;;;;5014448;28;20493;-60
2022/03/08 02:50:54;;;;;;;11.52;6.65;;;0.30;99.90;;;;;;5014626;28;20049;-60
2022/03/08 02:53:19;;;;;;;10.70;6.45;;;0.30;99.90;;;;;;5014763;28;20042;-60
2022/03/08 02:55:45;;;;;;;13.50;7.50;;;0.40;99.90;;;;;;5014260;28;20525;-60
2022/03/08 02:58:11;;;;;;;13.27;7.20;;;0.30;99.90;;;;;;5014348;28;20129;-60
2022/03/08 03:00:37;;;;;;;13.57;7.05;;;0.30;99.90;;;;;;5014238;28;20069;-60
2022/03/08 03:03:04;;;;;;;12.98;7.32;;;0.30;99.90;;;;;;5014413;28;20093;-60
2022/03/08 03:05:30;;;;;;;13.95;7.78;;;0.30;99.90;;;;;;5018465;28;20123;-60
2022/03/08 03:07:58;;;;;;;16.05;7.85;;;0.30;99.90;;;;;;5012889;28;20442;-60
2022/03/08 03:10:24;;;;;;;15.75;7.78;;;0.30;99.90;;;;;;4996535;28;20069;-60
2022/03/08 03:12:51;;;;;;;12.77;7.50;;;0.30;99.90;;;;;;5014353;28;20107;-60
2022/03/08 03:15:18;;;;;;;13.15;7.15;;;0.20;99.90;;;;;;5013904;28;20463;-59
2022/03/08 03:17:45;;;;;;;12.88;7.53;;;0.20;99.90;;;;;;5014106;28;20037;-60
2022/03/08 03:20:12;;;;;;;13.18;7.20;;;0.20;99.90;;;;;;5014173;28;20525;-60
2022/03/08 03:22:38;;;;;;;16.55;9.18;;;0.20;99.90;;;;;;5013610;28;20062;-60
2022/03/08 03:25:05;;;;;;;15.55;8.23;;;0.20;99.90;;;;;;5014009;28;20038;-60
2022/03/08 03:27:31;;;;;;;14.40;8.13;;;0.20;99.90;;;;;;5013797;28;20508;-59
2022/03/08 03:29:57;;;;;;;14.77;8.25;;;0.20;99.90;;;;;;5013739;28;20132;-59
2022/03/08 03:32:23;;;;;;;13.73;7.78;;;0.20;99.90;;;;;;5013650;28;20042;-60
2022/03/08 03:34:49;;;;;;;15.10;8.73;;;0.10;99.90;;;;;;5013881;28;20038;-60
2022/03/08 03:37:15;;;;;;;15.38;8.38;;;0.20;99.90;;;;;;5013826;28;20462;-60
2022/03/08 03:39:41;;;;;;;14.38;7.80;;;0.10;99.90;;;;;;5013685;28;20073;-60
2022/03/08 03:42:07;;;;;;;16.60;8.73;;;0.10;99.90;;;;;;5013869;28;20472;-60
2022/03/08 03:44:33;;;;;;;15.50;8.68;;;0.10;99.90;;;;;;5013679;28;20140;-60
2022/03/08 03:46:59;;;;;;;17.35;9.43;;;0.10;99.90;;;;;;5013581;28;20493;-60
2022/03/08 03:49:25;;;;;;;15.73;9.27;;;0.10;99.90;;;;;;5013445;28;20117;-60
2022/03/08 03:51:51;;;;;;;13.65;8.50;;;0.10;99.90;;;;;;5013512;28;20422;-60
2022/03/08 03:54:23;;;;;;;15.85;8.80;;;0.10;99.90;;;;;;5013460;28;20046;-60
2022/03/08 03:56:48;;;;;;;13.68;8.10;;;0.00;99.90;;;;;;5012377;28;20041;-60
2022/03/08 03:59:14;;;;;;;14.73;8.30;;;0.10;99.90;;;;;;5013491;28;20482;-60
2022/03/08 04:01:40;;;;;;;15.88;9.13;;;0.10;99.90;;;;;;5013360;28;20046;-60
2022/03/08 04:04:06;;;;;;;15.98;8.70;;;0.10;99.90;;;;;;5017946;28;20546;-60
2022/03/08 04:06:32;;;;;;;16.70;9.77;;;0.10;99.90;;;;;;4995824;28;20030;-60
2022/03/08 04:08:59;;;;;;;16.02;10.18;;;0.00;99.90;;;;;;4995871;28;20425;-59
2022/03/08 04:11:25;;;;;;;16.17;9.82;;;0.10;99.90;;;;;;5012975;28;20045;-60
2022/03/08 04:13:50;;;;;;;19.50;10.38;;;0.10;99.90;;;;;;5012880;28;20120;-60
2022/03/08 04:16:16;;;;;;;18.52;9.75;;;0.00;99.90;;;;;;5013259;28;20030;-60
2022/03/08 04:18:42;;;;;;;17.73;9.55;;;0.00;99.90;;;;;;5012791;28;20423;-60
2022/03/08 04:21:07;;;;;;;17.70;10.13;;;0.00;99.90;;;;;;5012818;28;20065;-60
2022/03/08 04:23:33;;;;;;;19.17;10.20;;;0.00;99.90;;;;;;5012784;28;20092;-60
2022/03/08 04:25:59;;;;;;;16.98;9.65;;;0.00;99.90;;;;;;5012691;28;20135;-60
2022/03/08 04:28:25;;;;;;;17.63;10.20;;;0.00;99.90;;;;;;4995174;28;20056;-60
2022/03/08 04:30:51;;;;;;;17.95;10.15;;;0.00;99.90;;;;;;5012984;28;20030;-59
2022/03/08 04:33:17;;;;;;;16.85;9.60;;;0.00;99.90;;;;;;5012988;28;20395;-60
2022/03/08 04:35:42;;;;;;;16.98;10.05;;;0.00;99.90;;;;;;5012738;28;20082;-60
2022/03/08 04:38:08;;;;;;;18.27;10.95;;;0.00;99.90;;;;;;5012646;28;20046;-60
2022/03/08 04:40:34;;;;;;;18.05;10.57;;;0.00;99.90;;;;;;5016468;28;20038;-60
2022/03/08 04:43:00;;;;;;;17.92;10.98;;;0.00;99.90;;;;;;5015696;28;20046;-58
2022/03/08 04:45:26;;;;;;;17.80;10.68;;;0.00;99.90;;;;;;5012427;28;20077;-60
2022/03/08 04:47:51;;;;;;;18.15;10.65;;;0.00;99.90;;;;;;5012422;28;20104;-60
2022/03/08 04:50:17;;;;;;;19.65;11.25;;;0.00;99.90;;;;;;5012689;28;20041;-59
2022/03/08 04:52:45;;;;;;;19.20;11.00;;;0.00;99.90;;;;;;5011127;28;20042;-60
2022/03/08 04:55:12;;;;;;;18.95;11.18;;;0.00;99.90;;;;;;5012509;28;20386;-60
2022/03/08 04:57:39;;;;;;;17.98;11.50;;;0.00;99.90;;;;;;5012443;28;20041;-60
2022/03/08 05:00:07;;;;;;;19.60;11.20;;;0.00;99.90;;;;;;5012468;28;20053;-60
2022/03/08 05:02:33;;;;;;;20.00;10.85;;;0.00;99.90;;;;;;5012537;28;20445;-60
2022/03/08 05:04:58;;;;;;;17.48;10.20;;;0.00;99.90;;;;;;5017033;28;20121;-60
2022/03/08 05:07:24;;;;;;;19.30;9.95;;;0.00;99.90;;;;;;5012195;28;20118;-60
2022/03/08 05:09:50;;;;;;;20.50;11.27;;;0.00;99.90;;;;;;5012192;28;20038;-61
2022/03/08 05:12:15;;;;;;;19.33;11.23;;;0.00;99.90;;;;;;5012205;28;20114;-61
2022/03/08 05:14:41;;;;;;;21.27;13.35;;;0.10;99.90;;;;;;5012145;28;20038;-60
2022/03/08 05:17:07;;;;;;;18.80;11.52;;;0.10;99.90;;;;;;5011959;28;20092;-60
2022/03/08 05:19:33;;;;;;;19.50;12.20;;;0.00;99.90;;;;;;5012072;28;20517;-60
2022/03/08 05:21:59;;;;;;;19.33;11.30;;;0.00;99.90;;;;;;5011930;28;20073;-60
2022/03/08 05:24:25;;;;;;;20.25;12.15;;;0.00;99.90;;;;;;5012262;28;20054;-60
2022/03/08 05:26:51;;;;;;;22.27;11.75;;;0.00;99.90;;;;;;5011890;28;20470;-60
2022/03/08 05:29:17;;;;;;;19.88;11.70;;;0.00;99.90;;;;;;5012676;28;20038;-60
2022/03/08 05:31:42;;;;;;;18.90;10.68;;;0.00;99.90;;;;;;4998199;28;20049;-61
2022/03/08 05:34:08;;;;;;;20.15;11.55;;;-0.10;99.90;;;;;;4998144;28;20054;-61
2022/03/08 05:36:34;;;;;;;22.00;12.38;;;-0.10;99.90;;;;;;5016025;28;20129;-60
2022/03/08 05:39:00;;;;;;;19.95;12.20;;;-0.10;99.90;;;;;;5015799;28;20046;-60
2022/03/08 05:41:26;;;;;;;20.92;12.13;;;-0.10;99.90;;;;;;5016115;28;20045;-60
2022/03/08 05:43:52;;;;;;;19.88;12.18;;;-0.10;99.90;;;;;;5015629;28;20552;-60
2022/03/08 05:46:18;;;;;;;21.80;12.68;;;-0.10;99.90;;;;;;5016003;28;20107;-60
2022/03/08 05:48:44;;;;;;;23.65;12.43;;;-0.10;99.90;;;;;;5015899;28;20486;-59
2022/03/08 05:51:09;;;;;;;20.35;11.30;;;-0.20;99.90;;;;;;5015934;28;20427;-60
2022/03/08 05:53:35;;;;;;;23.75;12.52;;;-0.20;99.90;;;;;;5015652;28;20504;-60
2022/03/08 05:56:01;;;;;;;22.50;12.07;;;-0.10;99.90;;;;;;5015793;28;20053;-60
2022/03/08 05:58:27;;;;;;;20.92;11.93;;;-0.20;99.90;;;;;;5015784;28;20722;-60
2022/03/08 06:00:52;;;;;;;21.52;12.60;;;-0.20;99.90;;;;;;5015734;28;20462;-60
2022/03/08 06:03:18;;;;;;;21.40;12.98;;;-0.20;99.90;;;;;;5015733;28;20037;-60
2022/03/08 06:05:44;;;;;;;20.83;11.52;;;-0.20;99.90;;;;;;5020165;28;20034;-58
2022/03/08 06:08:09;;;;;;;20.08;11.65;;;-0.20;99.90;;;;;;5015301;28;20044;-59
2022/03/08 06:10:36;;;;;;;21.23;11.38;;;-0.20;99.90;;;;;;5015343;28;20037;-60
2022/03/08 06:13:02;;;;;;;20.00;12.32;;;-0.20;99.90;;;;;;5015081;28;20084;-60
2022/03/08 06:15:28;;;;;;;21.55;12.57;;;-0.20;99.90;;;;;;5015143;28;20108;-60
2022/03/08 06:17:53;;;;;;;20.80;12.35;;;-0.30;99.90;;;;;;5015008;28;20188;-60
2022/03/08 06:20:19;;;;;;;21.77;13.45;;;-0.20;99.90;;;;;;5015134;28;20049;-60
2022/03/08 06:22:45;;;;;;;20.52;12.25;;;-0.20;99.90;;;;;;4997281;28;20502;-59
2022/03/08 06:25:11;;;;;;;20.45;11.95;;;-0.20;99.90;;;;;;5015073;28;20046;-60
2022/03/08 06:27:37;;;;;;;22.17;12.55;;;-0.20;99.90;;;;;;5014237;28;20050;-60
2022/03/08 06:30:04;;;;;;;25.60;13.50;;;-0.20;99.90;;;;;;5014258;28;20040;-59
2022/03/08 06:32:30;;;;;;;19.88;11.70;;;-0.10;99.90;;;;;;5013876;28;20493;-60
2022/03/08 06:34:56;;;;;;;23.30;12.68;;;-0.10;99.90;;;;;;5013996;28;20045;-58
2022/03/08 06:37:21;;;;;;;24.88;12.60;;;-0.10;99.90;;;;;;5013926;28;20466;-60
2022/03/08 06:39:48;;;;;;;23.75;12.73;;;-0.10;99.90;;;;;;5014114;28;20688;-59
2022/03/08 06:42:14;;;;;;;22.05;12.75;;;-0.10;99.90;;;;;;5013605;28;20042;-60
2022/03/08 06:44:40;;;;;;;22.38;11.95;;;0.00;99.90;;;;;;5012753;28;20049;-60
2022/03/08 06:47:07;;;;;;;20.80;12.57;;;0.00;99.90;;;;;;5012874;28;20737;-59
2022/03/08 06:49:33;;;;;;;24.35;14.13;;;0.10;99.90;;;;;;5013042;28;20483;-60
2022/03/08 06:51:59;;;;;;;23.52;12.80;;;0.10;99.90;;;;;;5012958;28;20064;-60
2022/03/08 06:54:25;;;;;;;23.90;13.52;;;0.10;99.90;;;;;;5013032;28;20430;-60
2022/03/08 06:56:51;;;;;;;23.05;12.63;;;0.20;99.90;;;;;;5015753;28;20034;-60
2022/03/08 06:59:17;;;;;;;20.58;11.88;;;0.20;99.90;;;;;;5013414;28;20382;-60
2022/03/08 07:01:42;;;;;;;20.65;12.82;;;0.30;99.90;;;;;;5013211;28;20398;-60
2022/03/08 07:04:08;;;;;;;20.75;11.85;;;0.40;99.90;;;;;;5018037;28;20041;-61
2022/03/08 07:06:34;;;;;;;25.27;12.88;;;0.40;99.90;;;;;;5013129;28;20049;-60
2022/03/08 07:09:00;;;;;;;23.98;12.40;;;0.50;99.90;;;;;;5013043;28;20554;-60
2022/03/08 07:11:25;;;;;;;20.63;12.63;;;0.50;99.90;;;;;;5019281;28;20551;-59
2022/03/08 07:13:51;;;;;;;22.42;11.60;;;0.60;99.90;;;;;;5028902;28;20033;-59
2022/03/08 07:16:18;;;;;;;22.25;11.82;;;0.60;99.90;;;;;;5020699;28;20109;-59
2022/03/08 07:18:44;;;;;;;21.80;11.95;;;0.70;99.90;;;;;;5013334;28;20087;-60
2022/03/08 07:21:10;;;;;;;18.15;11.15;;;0.80;99.90;;;;;;5012729;28;20062;-59
2022/03/08 07:23:37;;;;;;;18.98;12.02;;;0.80;99.90;;;;;;5012487;28;20053;-60
2022/03/08 07:26:03;;;;;;;18.75;11.27;;;0.90;99.90;;;;;;5020941;28;20050;-59
2022/03/08 07:28:28;;;;;;;18.85;11.30;;;1.00;99.90;;;;;;5020587;28;20045;-60
2022/03/08 07:30:54;;;;;;;20.33;12.05;;;1.00;99.90;;;;;;5019184;28;20708;-60
2022/03/08 07:33:20;;;;;;;21.48;12.15;;;1.10;99.90;;;;;;5008742;28;20049;-60
2022/03/08 07:35:45;;;;;;;20.65;11.60;;;1.10;99.90;;;;;;5032538;28;20065;-60
2022/03/08 07:38:11;;;;;;;20.33;12.05;;;1.20;99.90;;;;;;5032289;28;20049;-60
2022/03/08 07:40:37;;;;;;;19.17;11.88;;;1.30;99.90;;;;;;5014684;28;20053;-60
2022/03/08 07:43:03;;;;;;;19.40;11.18;;;1.40;99.90;;;;;;5032553;28;20667;-59
2022/03/08 07:45:29;;;;;;;18.95;11.95;;;1.40;99.90;;;;;;5032366;28;20393;-59
2022/03/08 07:47:55;;;;;;;22.38;12.02;;;1.50;99.90;;;;;;5032518;28;20041;-60
2022/03/08 07:50:22;;;;;;;20.40;11.90;;;1.60;99.90;;;;;;5032329;28;20047;-60
2022/03/08 07:52:49;;;;;;;23.65;12.10;;;1.70;99.90;;;;;;5014152;28;20049;-60
2022/03/08 07:55:14;;;;;;;20.70;12.63;;;1.80;99.90;;;;;;5031111;28;20046;-59
2022/03/08 07:57:40;;;;;;;19.10;11.02;;;1.90;99.90;;;;;;5032207;28;20045;-60
2022/03/08 08:00:07;;;;;;;15.88;10.43;;;2.00;99.90;;;;;;5026994;28;20038;-60
2022/03/08 08:02:33;;;;;;;19.02;10.50;;;2.10;99.90;;;;;;5026141;28;20040;-61
2022/03/08 08:04:59;;;;;;;18.23;10.50;;;2.10;99.90;;;;;;5026993;28;20071;-60
2022/03/08 08:07:25;;;;;;;16.17;9.98;;;2.30;99.90;;;;;;5031342;28;20033;-60
2022/03/08 08:09:51;;;;;;;15.80;9.80;;;2.40;99.90;;;;;;5031343;28;20045;-60
2022/03/08 08:12:16;;;;;;;19.27;10.88;;;2.40;99.90;;;;;;5031795;28;20425;-60
2022/03/08 08:14:42;;;;;;;18.23;10.55;;;2.50;99.90;;;;;;5031622;28;20041;-62
2022/03/08 08:17:08;;;;;;;15.40;10.50;;;2.70;99.90;;;;;;5032022;28;20052;-61
2022/03/08 08:19:33;;;;;;;20.85;10.45;;;2.70;99.90;;;;;;5025777;28;20065;-61
2022/03/08 08:21:59;;;;;;;17.80;9.30;;;2.80;99.90;;;;;;5002015;28;20065;-61
2022/03/08 08:24:25;;;;;;;17.73;10.40;;;2.90;99.90;;;;;;5025631;28;20041;-61
2022/03/08 08:26:50;;;;;;;19.17;10.82;;;3.00;99.90;;;;;;5027889;28;20037;-61
2022/03/08 08:29:16;;;;;;;17.80;10.18;;;3.10;99.90;;;;;;5026604;28;20045;-61
2022/03/08 08:31:42;;;;;;;15.98;9.35;;;3.10;99.90;;;;;;5024725;28;20380;-61
2022/03/08 08:34:08;;;;;;;15.77;10.18;;;3.20;99.90;;;;;;5025193;28;20483;-61
2022/03/08 08:36:33;;;;;;;15.70;9.40;;;3.30;99.90;;;;;;5009853;28;20040;-61
2022/03/08 08:38:59;;;;;;;16.77;9.00;;;3.40;99.90;;;;;;5026931;28;20038;-61
2022/03/08 08:41:25;;;;;;;14.90;9.15;;;3.40;99.90;;;;;;5026095;28;20065;-61
2022/03/08 08:43:51;;;;;;;16.15;9.93;;;3.50;99.90;;;;;;5025180;28;20511;-61
2022/03/08 08:46:17;;;;;;;16.42;9.23;;;3.50;99.90;;;;;;5027236;28;20037;-61
2022/03/08 08:48:43;;;;;;;14.05;9.07;;;3.60;99.90;;;;;;5026805;28;20456;-61
2022/03/08 08:51:08;;;;;;;18.13;10.32;;;3.70;99.90;;;;;;5026634;28;20108;-61
2022/03/08 08:53:34;;;;;;;15.10;8.63;;;3.80;99.90;;;;;;5025755;28;20042;-61
2022/03/08 08:56:00;;;;;;;16.88;9.23;;;3.90;99.90;;;;;;5025936;28;20041;-61
2022/03/08 08:58:26;;;;;;;17.75;9.82;;;3.90;99.90;;;;;;5027236;28;20120;-61
2022/03/08 09:00:51;;;;;;;16.40;10.07;;;4.10;99.90;;;;;;5027153;28;20130;-60
2022/03/08 09:03:17;;;;;;;15.32;8.63;;;4.10;99.90;;;;;;5025196;28;20045;-61
2022/03/08 09:05:44;;;;;;;15.15;9.45;;;4.20;99.90;;;;;;5024987;28;20084;-61
2022/03/08 09:08:11;;;;;;;15.48;9.30;;;4.30;99.90;;;;;;5026372;28;20052;-61
2022/03/08 09:10:37;;;;;;;16.10;9.02;;;4.40;99.90;;;;;;5026237;28;20148;-61
2022/03/08 09:13:03;;;;;;;15.25;9.07;;;4.40;99.90;;;;;;5025754;28;20517;-61
2022/03/08 09:15:29;;;;;;;16.83;8.88;;;4.50;99.90;;;;;;5026360;28;20068;-61
2022/03/08 09:17:55;;;;;;;14.20;8.93;;;4.50;99.90;;;;;;5025923;28;20103;-61
2022/03/08 09:20:22;;;;;;;16.73;9.15;;;4.60;99.90;;;;;;5027020;28;20053;-61
2022/03/08 09:22:49;;;;;;;15.98;9.77;;;4.70;99.90;;;;;;5026513;28;20089;-61
2022/03/08 09:25:15;;;;;;;18.48;9.63;;;4.70;99.90;;;;;;5026434;28;20042;-61
2022/03/08 09:27:40;;;;;;;12.80;8.45;;;4.80;99.90;;;;;;5026762;28;20091;-61
2022/03/08 09:30:07;;;;;;;13.25;8.23;;;4.90;99.90;;;;;;5026290;28;20103;-61
2022/03/08 09:32:33;;;;;;;16.10;8.68;;;4.90;99.90;;;;;;5025190;28;20044;-61
2022/03/08 09:34:59;;;;;;;13.77;9.35;;;4.90;99.90;;;;;;5026574;28;20038;-61
2022/03/08 09:37:25;;;;;;;15.57;8.45;;;5.00;99.90;;;;;;5026354;28;20056;-61
2022/03/08 09:39:50;;;;;;;14.77;8.93;;;5.10;99.90;;;;;;5026218;28;20478;-61
2022/03/08 09:42:17;;;;;;;14.00;9.18;;;5.10;99.90;;;;;;5031325;28;21371;-61
2022/03/08 09:44:43;;;;;;;17.13;8.77;;;5.20;99.90;;;;;;5029275;28;20054;-60
2022/03/08 09:47:09;;;;;;;14.50;9.13;;;5.30;99.90;;;;;;5025543;28;20100;-61
2022/03/08 09:49:35;;;;;;;15.32;9.45;;;5.30;99.90;;;;;;5026723;28;20111;-61
2022/03/08 09:52:02;;;;;;;13.48;8.27;;;5.40;99.90;;;;;;5026347;28;20491;-61
2022/03/08 09:54:28;;;;;;;14.02;8.38;;;5.40;99.90;;;;;;5009031;28;20049;-61
2022/03/08 09:56:53;;;;;;;13.68;8.43;;;5.50;99.90;;;;;;5009021;28;20048;-61
2022/03/08 09:59:20;;;;;;;15.98;8.20;;;5.50;99.90;;;;;;5026903;28;20492;-61
2022/03/08 10:01:47;;;;;;;12.98;7.90;;;5.70;99.90;;;;;;5008505;28;20041;-61
2022/03/08 10:04:17;;;;;;;11.43;7.90;;;5.70;99.90;;;;;;5024771;28;20088;-61
2022/03/08 10:06:44;;;;;;;16.88;8.05;;;5.70;99.90;;;;;;5026322;28;21237;-61
2022/03/08 10:09:16;;;;;;;12.02;7.85;;;5.80;99.90;;;;;;5026727;28;20038;-61
2022/03/08 10:11:42;;;;;;;12.52;8.13;;;5.80;99.90;;;;;;5025907;28;20419;-60
2022/03/08 10:14:13;;;;;;;11.93;7.35;;;5.90;99.90;;;;;;5026054;28;20405;-61
2022/03/08 10:16:42;;;;;;;13.07;7.60;;;6.00;99.90;;;;;;5028631;28;20037;-61
2022/03/08 10:19:10;;;;;;;10.43;6.72;;;6.00;99.90;;;;;;5029959;28;20118;-61
2022/03/08 10:21:43;;;;;;;11.57;6.45;;;6.10;99.90;;;;;;5029586;28;20049;-61
2022/03/08 10:24:13;;;;;;;11.38;6.30;;;6.20;99.90;;;;;;5012083;28;20187;-61
2022/03/08 10:26:48;;;;;;;11.32;6.93;;;6.30;99.90;;;;;;5029026;28;20040;-61
2022/03/08 10:29:20;;;;;;;13.05;6.22;;;6.40;99.90;;;;;;5020452;28;20487;-61
2022/03/08 10:31:46;;;;;;;12.73;6.90;;;6.40;99.90;;;;;;5014040;28;20069;-61
2022/03/08 10:34:16;;;;;;;10.75;6.28;;;6.50;99.90;;;;;;5013553;28;20038;-61
2022/03/08 10:36:58;;;;;;;9.88;6.18;;;6.50;99.90;;;;;;4996041;28;20086;-61
2022/03/08 10:39:24;;;;;;;;;;;6.60;99.90;;;;;;5013873;28;20121;-61
2022/03/08 10:41:54;;;;;;;11.77;6.68;;;6.60;99.90;;;;;;5013523;28;20056;-61
2022/03/08 10:44:38;;;;;;;10.98;6.15;;;6.60;99.90;;;;;;5013415;28;20164;-61
2022/03/08 10:47:12;;;;;;;11.00;6.00;;;6.70;99.90;;;;;;5013389;28;20048;-61
2022/03/08 10:49:54;;;;;;;9.73;6.03;;;6.70;99.90;;;;;;5016803;28;20052;-61
2022/03/08 10:52:31;;;;;;;10.48;6.07;;;6.80;99.90;;;;;;5033399;28;20041;-61
2022/03/08 10:55:16;;;;;;;11.35;6.28;;;6.90;99.90;;;;;;5034229;28;20116;-61
2022/03/08 10:57:44;;;;;;;9.80;5.82;;;7.00;99.90;;;;;;5016188;28;20067;-61
2022/03/08 11:00:15;;;;;;;12.23;6.45;;;7.10;99.90;;;;;;5034234;28;20045;-63
2022/03/08 11:02:49;;;;;;;13.55;6.00;;;7.20;99.90;;;;;;5034166;28;20116;-62
2022/03/08 11:05:17;;;;;;;12.52;5.53;;;7.30;99.90;;;;;;5023140;28;20044;-61
2022/03/08 11:07:42;;;;;;;11.55;5.50;;;7.40;99.90;;;;;;5014572;28;20358;-61
2022/03/08 11:10:11;;;;;;;9.70;5.88;;;7.40;99.90;;;;;;5014197;28;20049;-61
2022/03/08 11:12:38;;;;;;;8.88;5.45;;;7.50;99.90;;;;;;5012608;28;20041;-61
2022/03/08 11:15:05;;;;;;;9.45;5.93;;;7.50;99.90;;;;;;5014503;28;20041;-61
2022/03/08 11:17:35;;;;;;;9.80;5.50;;;7.60;99.90;;;;;;5014064;28;20148;-61
2022/03/08 11:20:09;;;;;;;10.40;5.75;;;7.60;99.90;;;;;;5013778;28;20389;-61
2022/03/08 11:22:36;;;;;;;11.50;5.45;;;7.70;99.90;;;;;;5013388;28;20135;-61
2022/03/08 11:25:04;;;;;;;9.88;5.00;;;7.90;99.90;;;;;;5013515;28;20073;-61
2022/03/08 11:27:31;;;;;;;9.77;6.38;;;7.90;99.90;;;;;;5012879;28;20042;-61
2022/03/08 11:29:56;;;;;;;10.00;5.22;;;8.10;99.50;;;;;;5013469;28;20077;-61
2022/03/08 11:32:31;;;;;;;9.45;6.00;;;8.00;99.60;;;;;;5013466;28;20487;-61
2022/03/08 11:35:12;;;;;;;9.65;5.97;;;8.00;99.20;;;;;;5013829;28;20052;-61
2022/03/08 11:37:41;;;;;;;11.63;6.20;;;8.00;99.90;;;;;;5013871;28;20048;-61
2022/03/08 11:40:11;;;;;;;10.13;5.53;;;8.00;99.70;;;;;;5013601;28;20108;-61
2022/03/08 11:42:42;;;;;;;10.25;5.75;;;8.10;99.90;;;;;;5013903;28;20092;-61
2022/03/08 11:45:11;;;;;;;10.13;5.53;;;8.30;99.90;;;;;;5013357;28;20045;-61
2022/03/08 11:47:43;;;;;;;8.98;6.00;;;8.20;99.50;;;;;;4995298;28;20128;-61
2022/03/08 11:50:29;;;;;;;8.75;5.28;;;8.40;99.90;;;;;;5013180;28;20046;-61
2022/03/08 11:53:06;;;;;;;9.52;5.55;;;8.40;99.70;;;;;;5013271;28;20042;-61
2022/03/08 11:55:50;;;;;;;9.35;4.88;;;8.40;99.70;;;;;;5013180;28;20444;-61
2022/03/08 11:58:19;;;;;;;8.13;4.78;;;8.40;99.00;;;;;;5012713;28;20046;-61
2022/03/08 12:00:59;;;;;;;11.82;5.95;;;8.50;98.50;;;;;;5012765;28;20490;-62
2022/03/08 12:03:24;;;;;;;9.50;5.53;;;8.50;98.30;;;;;;4996236;28;20394;-61
2022/03/08 12:06:02;;;;;;;10.50;5.55;;;8.40;98.50;;;;;;5017026;28;20042;-62
2022/03/08 12:08:27;;;;;;;8.35;5.00;;;8.60;98.60;;;;;;5013136;28;20398;-62
2022/03/08 12:10:58;;;;;;;11.50;6.18;;;8.40;97.00;;;;;;5013256;28;20052;-61
2022/03/08 12:13:35;;;;;;;11.18;5.70;;;8.50;97.80;;;;;;5015497;28;20046;-61
2022/03/08 12:16:09;;;;;;;10.13;5.20;;;8.50;97.70;;;;;;5018530;28;20046;-62
2022/03/08 12:18:48;;;;;;;9.07;5.38;;;8.60;98.30;;;;;;5011569;28;20124;-61
2022/03/08 12:21:20;;;;;;;8.85;4.78;;;8.70;97.10;;;;;;5012714;28;20065;-61
2022/03/08 12:24:09;;;;;;;10.23;4.63;;;8.80;98.90;;;;;;5012950;28;20046;-61
2022/03/08 12:26:53;;;;;;;9.63;5.35;;;9.00;97.90;;;;;;5012849;28;20375;-62
2022/03/08 12:29:22;;;;;;;8.85;5.45;;;9.00;97.00;;;;;;5013038;28;20046;-61
2022/03/08 12:32:05;;;;;;;9.07;4.80;;;9.10;97.80;;;;;;5012677;28;20053;-61
2022/03/08 12:34:43;;;;;;;9.10;5.15;;;9.00;97.00;;;;;;5013014;28;20046;-61
2022/03/08 12:37:19;;;;;;;8.20;4.10;;;9.10;98.00;;;;;;5012715;28;20517;-61
2022/03/08 12:39:46;;;;;;;8.60;5.22;;;9.00;96.00;;;;;;5012402;28;20126;-61
2022/03/08 12:42:38;;;;;;;9.50;5.32;;;8.90;96.60;;;;;;5012724;28;20092;-61
2022/03/08 12:45:15;;;;;;;10.52;4.95;;;9.10;96.30;;;;;;5012784;28;20049;-62